createdAt,value
2023-04-18T00:00:42.241Z,26.90
2023-04-18T00:03:09.610Z,25.45
2023-04-18T00:05:36.759Z,27.00
2023-04-18T00:08:03.846Z,26.88
2023-04-18T00:10:30.492Z,34.13
2023-04-18T00:12:58.249Z,31.70
2023-04-18T00:15:25.908Z,29.23
2023-04-18T00:17:56.339Z,31.17
2023-04-18T00:20:26.739Z,29.88
2023-04-18T00:22:53.323Z,25.70
2023-04-18T00:25:19.864Z,29.13
2023-04-18T00:27:46.487Z,29.15
2023-04-18T00:30:13.300Z,27.98
2023-04-18T00:32:39.976Z,29.48
2023-04-18T00:35:07.083Z,31.30
2023-04-18T00:37:33.970Z,30.30
2023-04-18T00:40:00.521Z,36.30
2023-04-18T00:42:28.849Z,25.98
2023-04-18T00:44:55.499Z,29.63
2023-04-18T00:47:22.161Z,29.42
2023-04-18T00:49:49.199Z,33.25
2023-04-18T00:52:18.382Z,27.67
2023-04-18T00:54:45.344Z,28.17
2023-04-18T00:57:15.399Z,34.03
2023-04-18T00:59:42.521Z,31.77
2023-04-18T01:02:09.094Z,30.40
2023-04-18T01:04:35.939Z,29.45
2023-04-18T01:07:03.285Z,29.17
2023-04-18T01:09:30.263Z,24.80
2023-04-18T01:11:57.057Z,21.40
2023-04-18T01:14:24.058Z,26.40
2023-04-18T01:16:50.617Z,25.80
2023-04-18T01:19:19.182Z,23.42
2023-04-18T01:21:45.874Z,25.35
2023-04-18T01:24:15.624Z,24.20
2023-04-18T01:26:44.850Z,26.83
2023-04-18T01:29:11.757Z,23.58
2023-04-18T01:31:39.593Z,21.35
2023-04-18T01:34:07.461Z,25.45
2023-04-18T01:36:36.486Z,21.95
2023-04-18T01:39:03.479Z,20.88
2023-04-18T01:41:32.755Z,22.95
2023-04-18T01:44:00.311Z,24.48
2023-04-18T01:46:27.848Z,25.88
2023-04-18T01:48:55.213Z,25.08
2023-04-18T01:51:22.068Z,24.67
2023-04-18T01:53:48.786Z,34.17
2023-04-18T01:56:15.595Z,35.42
2023-04-18T01:58:42.204Z,27.23
2023-04-18T02:01:08.963Z,26.35
2023-04-18T02:03:35.861Z,27.60
2023-04-18T02:06:06.423Z,30.58
2023-04-18T02:08:35.655Z,25.08
2023-04-18T02:11:05.362Z,24.87
2023-04-18T02:13:32.227Z,29.70
2023-04-18T02:15:58.796Z,29.52
2023-04-18T02:18:26.603Z,30.90
2023-04-18T02:20:53.147Z,29.35
2023-04-18T02:23:21.753Z,29.48
2023-04-18T02:25:48.369Z,27.17
2023-04-18T02:28:17.359Z,29.02
2023-04-18T02:30:43.911Z,30.20
2023-04-18T02:33:10.579Z,28.67
2023-04-18T02:35:37.715Z,36.22
2023-04-18T02:38:04.480Z,43.70
2023-04-18T02:40:31.003Z,31.17
2023-04-18T02:42:59.379Z,40.53
2023-04-18T02:45:26.124Z,38.40
2023-04-18T02:47:55.992Z,32.85
2023-04-18T02:50:24.544Z,37.58
2023-04-18T02:52:52.703Z,38.38
2023-04-18T02:55:21.921Z,33.08
2023-04-18T02:57:48.660Z,35.65
2023-04-18T03:00:44.167Z,37.33
2023-04-18T03:03:30.447Z,40.70
2023-04-18T03:06:07.982Z,47.28
2023-04-18T03:08:35.895Z,39.05
2023-04-18T03:11:02.611Z,41.30
2023-04-18T03:13:30.702Z,44.53
2023-04-18T03:15:58.001Z,47.20
2023-04-18T03:18:26.172Z,43.83
2023-04-18T03:20:56.523Z,41.25
2023-04-18T03:23:23.161Z,47.42
2023-04-18T03:25:49.766Z,40.83
2023-04-18T03:28:16.814Z,43.78
2023-04-18T03:30:43.782Z,41.95
2023-04-18T03:33:10.664Z,44.72
2023-04-18T03:35:38.249Z,44.83
2023-04-18T03:38:05.364Z,46.58
2023-04-18T03:40:36.287Z,42.53
2023-04-18T03:43:09.023Z,48.00
2023-04-18T03:45:36.096Z,47.83
2023-04-18T03:48:02.805Z,45.78
2023-04-18T03:50:34.405Z,40.42
2023-04-18T03:53:02.821Z,37.15
2023-04-18T03:55:33.253Z,45.33
2023-04-18T03:58:01.279Z,45.42
2023-04-18T04:00:29.376Z,48.25
2023-04-18T04:03:04.558Z,55.25
2023-04-18T04:05:31.424Z,49.78
2023-04-18T04:07:57.968Z,49.55
2023-04-18T04:10:25.700Z,42.20
2023-04-18T04:12:53.364Z,41.25
2023-04-18T04:15:20.091Z,46.85
2023-04-18T04:17:52.718Z,47.10
2023-04-18T04:20:24.617Z,38.42
2023-04-18T04:22:58.980Z,40.13
2023-04-18T04:25:28.622Z,45.22
2023-04-18T04:27:57.252Z,40.90
2023-04-18T04:30:24.250Z,45.00
2023-04-18T04:32:51.047Z,42.10
2023-04-18T04:35:17.910Z,38.17
2023-04-18T04:37:45.222Z,36.22
2023-04-18T04:40:23.055Z,37.40
2023-04-18T04:42:54.752Z,45.63
2023-04-18T04:45:27.146Z,43.83
2023-04-18T04:47:53.964Z,39.17
2023-04-18T04:50:20.933Z,48.75
2023-04-18T04:52:47.610Z,42.38
2023-04-18T04:55:14.422Z,40.83
2023-04-18T04:57:42.409Z,46.83
2023-04-18T05:00:29.177Z,39.53
2023-04-18T05:02:59.921Z,42.40
2023-04-18T05:05:27.553Z,38.95
2023-04-18T05:07:54.582Z,42.45
2023-04-18T05:10:21.733Z,39.85
2023-04-18T05:12:48.257Z,39.42
2023-04-18T05:15:18.074Z,36.80
2023-04-18T05:17:44.689Z,42.00
2023-04-18T05:20:11.672Z,37.47
2023-04-18T05:22:38.229Z,39.70
2023-04-18T05:25:05.442Z,42.63
2023-04-18T05:27:32.042Z,45.55
2023-04-18T05:29:58.606Z,40.20
2023-04-18T05:32:25.858Z,34.05
2023-04-18T05:34:52.556Z,42.83
2023-04-18T05:37:19.158Z,43.05
2023-04-18T05:39:45.992Z,37.35
2023-04-18T05:42:12.530Z,36.00
2023-04-18T05:44:39.147Z,43.95
2023-04-18T05:47:08.329Z,37.67
2023-04-18T05:49:34.939Z,38.25
2023-04-18T05:52:01.474Z,36.80
2023-04-18T05:54:28.258Z,46.28
2023-04-18T05:56:55.246Z,41.60
2023-04-18T05:59:22.174Z,37.80
2023-04-18T06:01:49.473Z,31.05
2023-04-18T06:04:16.684Z,38.42
2023-04-18T06:06:43.645Z,34.72
2023-04-18T06:09:10.278Z,34.58
2023-04-18T06:11:36.974Z,32.97
2023-04-18T06:14:03.637Z,32.38
2023-04-18T06:16:30.438Z,36.95
2023-04-18T06:19:00.940Z,40.70
2023-04-18T06:21:28.120Z,37.10
2023-04-18T06:23:55.010Z,36.45
2023-04-18T06:26:21.649Z,33.47
2023-04-18T06:28:48.167Z,31.90
2023-04-18T06:31:16.394Z,31.38
2023-04-18T06:33:42.925Z,36.60
2023-04-18T06:36:09.860Z,33.50
2023-04-18T06:38:36.494Z,34.20
2023-04-18T06:41:03.154Z,33.25
2023-04-18T06:43:29.704Z,29.23
2023-04-18T06:45:56.874Z,31.83
2023-04-18T06:48:23.642Z,33.63
2023-04-18T06:50:50.564Z,39.13
2023-04-18T06:53:17.166Z,36.85
2023-04-18T06:55:43.772Z,33.88
2023-04-18T06:58:10.338Z,39.22
2023-04-18T07:00:36.914Z,32.08
2023-04-18T07:03:11.385Z,29.48
2023-04-18T07:05:41.162Z,29.75
2023-04-18T07:08:08.264Z,38.13
2023-04-18T07:10:34.899Z,27.33
2023-04-18T07:13:01.534Z,28.70
2023-04-18T07:15:28.368Z,31.38
2023-04-18T07:17:55.044Z,32.92
2023-04-18T07:20:21.808Z,27.00
2023-04-18T07:22:48.730Z,34.50
2023-04-18T07:25:15.434Z,26.27
2023-04-18T07:27:42.017Z,30.20
2023-04-18T07:30:09.334Z,29.58
2023-04-18T07:32:35.959Z,27.52
2023-04-18T07:35:04.120Z,28.70
2023-04-18T07:37:31.291Z,30.05
2023-04-18T07:39:58.818Z,27.45
2023-04-18T07:42:27.160Z,27.95
2023-04-18T07:44:58.721Z,28.65
2023-04-18T07:47:29.405Z,32.35
2023-04-18T07:49:57.336Z,30.03
2023-04-18T07:52:23.950Z,30.13
2023-04-18T07:54:52.179Z,28.65
2023-04-18T07:57:18.709Z,30.35
2023-04-18T07:59:46.095Z,22.20
2023-04-18T08:02:12.805Z,31.67
2023-04-18T08:04:39.468Z,27.00
2023-04-18T08:07:06.551Z,22.67
2023-04-18T08:09:34.284Z,31.50
2023-04-18T08:12:00.951Z,22.00
2023-04-18T08:14:27.573Z,25.33
2023-04-18T08:16:54.173Z,23.65
2023-04-18T08:19:20.770Z,19.55
2023-04-18T08:21:51.099Z,24.35
2023-04-18T08:24:18.370Z,21.85
2023-04-18T08:26:45.198Z,19.45
2023-04-18T08:29:12.331Z,18.92
2023-04-18T08:31:39.903Z,19.15
2023-04-18T08:34:06.490Z,18.65
2023-04-18T08:36:33.078Z,14.30
2023-04-18T08:38:59.956Z,16.70
2023-04-18T08:41:27.506Z,18.58
2023-04-18T08:43:55.920Z,16.95
2023-04-18T08:46:23.689Z,20.95
2023-04-18T08:48:51.335Z,19.35
2023-04-18T08:51:17.882Z,15.73
2023-04-18T08:53:45.452Z,16.65
2023-04-18T08:56:14.633Z,17.35
2023-04-18T08:58:41.189Z,17.40
2023-04-18T09:01:07.855Z,19.02
2023-04-18T09:03:43.944Z,17.08
2023-04-18T09:06:15.948Z,16.50
2023-04-18T09:11:28.905Z,12.70
2023-04-18T09:13:58.610Z,9.40
2023-04-18T09:16:29.304Z,15.27
2023-04-18T09:19:18.115Z,12.07
2023-04-18T09:21:49.133Z,15.27
2023-04-18T09:24:24.746Z,13.82
2023-04-18T09:26:53.730Z,17.10
2023-04-18T09:29:23.826Z,12.35
2023-04-18T09:32:08.345Z,17.73
2023-04-18T09:34:42.448Z,14.35
2023-04-18T09:37:11.386Z,15.23
2023-04-18T09:39:39.528Z,12.35
2023-04-18T09:42:06.360Z,9.45
2023-04-18T09:44:32.972Z,11.57
2023-04-18T09:47:00.537Z,19.13
2023-04-18T09:49:27.447Z,10.05
2023-04-18T09:51:55.814Z,8.55
2023-04-18T09:54:31.214Z,8.27
2023-04-18T09:56:58.841Z,14.48
2023-04-18T09:59:54.960Z,11.18
2023-04-18T10:02:23.381Z,8.98
2023-04-18T10:04:51.684Z,9.07
2023-04-18T10:07:18.813Z,10.95
2023-04-18T10:09:49.769Z,16.25
2023-04-18T10:12:18.354Z,11.95
2023-04-18T10:14:46.115Z,16.55
2023-04-18T10:17:14.891Z,11.45
2023-04-18T10:19:44.247Z,12.75
2023-04-18T10:22:11.859Z,12.93
2023-04-18T10:24:56.234Z,11.38
2023-04-18T10:27:48.071Z,10.80
2023-04-18T10:30:18.707Z,9.02
2023-04-18T10:32:48.400Z,8.77
2023-04-18T10:35:14.937Z,12.60
2023-04-18T10:37:59.781Z,12.20
2023-04-18T10:40:34.491Z,11.10
2023-04-18T10:43:01.542Z,16.52
2023-04-18T10:45:32.482Z,9.35
2023-04-18T10:48:30.008Z,8.20
2023-04-18T10:51:17.089Z,12.15
2023-04-18T10:53:57.576Z,5.40
2023-04-18T10:56:26.071Z,10.20
2023-04-18T10:58:53.411Z,12.57
2023-04-18T11:01:32.112Z,9.60
2023-04-18T11:04:00.429Z,9.80
2023-04-18T11:06:27.705Z,8.75
2023-04-18T11:09:14.508Z,8.45
2023-04-18T11:11:42.365Z,8.93
2023-04-18T11:14:08.985Z,9.30
2023-04-18T11:16:36.354Z,7.88
2023-04-18T11:19:23.456Z,10.00
2023-04-18T11:21:51.516Z,9.43
2023-04-18T11:24:24.224Z,14.02
2023-04-18T11:26:55.952Z,9.52
2023-04-18T11:29:22.914Z,7.55
2023-04-18T11:31:51.384Z,6.47
2023-04-18T11:34:18.030Z,3.67
2023-04-18T11:36:48.833Z,6.72
2023-04-18T11:39:15.506Z,5.43
2023-04-18T11:41:44.605Z,6.53
2023-04-18T11:44:11.272Z,7.03
2023-04-18T11:46:39.360Z,6.65
2023-04-18T11:49:06.162Z,5.00
2023-04-18T11:51:38.545Z,6.93
2023-04-18T11:54:06.676Z,7.72
2023-04-18T11:56:35.325Z,4.47
2023-04-18T11:59:09.604Z,8.70
2023-04-18T12:01:36.282Z,5.22
2023-04-18T12:04:08.049Z,6.13
2023-04-18T12:09:18.743Z,4.18
2023-04-18T12:11:58.125Z,10.50
2023-04-18T12:14:24.700Z,8.60
2023-04-18T12:16:52.020Z,7.82
2023-04-18T12:19:20.830Z,4.35
2023-04-18T12:21:56.781Z,9.88
2023-04-18T12:24:25.162Z,5.53
2023-04-18T12:26:52.650Z,6.78
2023-04-18T12:29:19.238Z,3.67
2023-04-18T12:31:47.506Z,5.03
2023-04-18T12:34:14.309Z,3.88
2023-04-18T12:36:42.468Z,7.90
2023-04-18T12:39:10.131Z,5.57
2023-04-18T12:41:36.772Z,7.00
2023-04-18T12:44:03.619Z,16.30
2023-04-18T12:46:30.669Z,6.70
2023-04-18T12:48:57.473Z,6.75
2023-04-18T12:51:24.882Z,10.52
2023-04-18T12:53:51.537Z,9.27
2023-04-18T12:56:18.170Z,4.78
2023-04-18T12:58:45.208Z,9.55
2023-04-18T13:01:14.127Z,8.45
2023-04-18T13:03:42.162Z,8.20
2023-04-18T13:06:09.137Z,13.07
2023-04-18T13:08:37.573Z,7.30
2023-04-18T13:11:04.256Z,7.38
2023-04-18T13:13:31.100Z,7.40
2023-04-18T13:15:57.768Z,5.72
2023-04-18T13:18:26.803Z,8.55
2023-04-18T13:20:53.788Z,11.88
2023-04-18T13:23:20.383Z,9.00
2023-04-18T13:25:46.879Z,10.13
2023-04-18T13:28:15.149Z,8.50
2023-04-18T13:30:41.789Z,8.95
2023-04-18T13:33:08.407Z,8.15
2023-04-18T13:35:36.028Z,8.43
2023-04-18T13:38:02.628Z,6.18
2023-04-18T13:40:29.176Z,9.55
2023-04-18T13:42:55.842Z,8.73
2023-04-18T13:45:22.422Z,10.40
2023-04-18T13:47:49.142Z,10.73
2023-04-18T13:50:16.097Z,6.82
2023-04-18T13:52:42.683Z,6.57
2023-04-18T13:55:10.673Z,9.02
2023-04-18T13:57:41.097Z,7.78
2023-04-18T14:00:09.214Z,7.72
2023-04-18T14:02:38.699Z,9.32
2023-04-18T14:05:07.387Z,6.90
2023-04-18T14:07:34.066Z,8.40
2023-04-18T14:10:00.662Z,11.90
2023-04-18T14:12:27.243Z,11.88
2023-04-18T14:14:54.090Z,9.15
2023-04-18T14:17:20.651Z,7.00
2023-04-18T14:19:48.148Z,9.13
2023-04-18T14:22:14.664Z,7.25
2023-04-18T14:24:41.265Z,13.75
2023-04-18T14:27:07.852Z,9.43
2023-04-18T14:29:34.378Z,9.88
2023-04-18T14:32:01.365Z,16.20
2023-04-18T14:34:27.938Z,9.52
2023-04-18T14:36:54.504Z,8.27
2023-04-18T14:39:21.591Z,7.57
2023-04-18T14:41:48.294Z,11.80
2023-04-18T14:44:17.854Z,8.35
2023-04-18T14:46:44.463Z,9.70
2023-04-18T14:49:11.417Z,10.35
2023-04-18T14:51:37.960Z,6.35
2023-04-18T14:54:04.743Z,12.25
2023-04-18T14:56:31.267Z,19.55
2023-04-18T14:58:58.688Z,9.52
2023-04-18T15:01:25.270Z,8.93
2023-04-18T15:03:52.517Z,10.32
2023-04-18T15:06:19.197Z,6.25
2023-04-18T15:08:47.122Z,9.80
2023-04-18T15:11:14.986Z,11.32
2023-04-18T15:13:41.963Z,7.95
2023-04-18T15:16:08.583Z,9.45
2023-04-18T15:18:35.902Z,6.28
2023-04-18T15:21:02.498Z,11.73
2023-04-18T15:23:29.075Z,7.88
2023-04-18T15:25:56.297Z,7.82
2023-04-18T15:28:23.082Z,9.45
2023-04-18T15:30:49.708Z,7.10
2023-04-18T15:33:17.977Z,11.30
2023-04-18T15:35:45.710Z,9.90
2023-04-18T15:38:12.438Z,10.40
2023-04-18T15:40:39.166Z,9.13
2023-04-18T15:43:06.319Z,11.75
2023-04-18T15:45:33.426Z,13.52
2023-04-18T15:48:00.218Z,9.30
2023-04-18T15:50:26.924Z,11.18
2023-04-18T15:52:54.286Z,12.52
2023-04-18T15:55:20.956Z,12.07
2023-04-18T15:57:47.649Z,10.98
2023-04-18T16:00:17.345Z,9.60
2023-04-18T16:02:45.466Z,14.27
2023-04-18T16:05:13.089Z,13.73
2023-04-18T16:07:41.402Z,9.80
2023-04-18T16:10:10.347Z,14.50
2023-04-18T16:12:38.803Z,12.18
2023-04-18T16:15:07.019Z,10.60
2023-04-18T16:17:34.120Z,11.10
2023-04-18T16:20:00.770Z,10.50
2023-04-18T16:22:27.626Z,12.32
2023-04-18T16:24:54.148Z,16.70
2023-04-18T16:27:21.267Z,13.77
2023-04-18T16:29:47.831Z,14.77
2023-04-18T16:32:14.505Z,27.75
2023-04-18T16:34:41.027Z,10.63
2023-04-18T16:37:07.901Z,11.02
2023-04-18T16:39:34.813Z,11.68
2023-04-18T16:42:02.872Z,20.20
2023-04-18T16:44:30.764Z,17.45
2023-04-18T16:46:57.573Z,21.45
2023-04-18T16:49:27.618Z,14.80
2023-04-18T16:51:54.298Z,16.27
2023-04-18T16:54:21.357Z,43.58
2023-04-18T16:56:48.350Z,50.97
2023-04-18T16:59:17.744Z,16.90
2023-04-18T17:01:44.571Z,39.00
2023-04-18T17:04:11.362Z,49.92
2023-04-18T17:06:38.000Z,49.85
2023-04-18T17:09:06.484Z,46.10
2023-04-18T17:11:38.838Z,55.83
2023-04-18T17:14:06.606Z,45.85
2023-04-18T17:16:33.411Z,46.10
2023-04-18T17:19:00.184Z,34.88
2023-04-18T17:21:27.339Z,39.60
2023-04-18T17:23:54.630Z,45.00
2023-04-18T17:26:22.622Z,25.75
2023-04-18T17:28:49.260Z,20.55
2023-04-18T17:31:16.148Z,24.98
2023-04-18T17:33:43.005Z,31.70
2023-04-18T17:36:09.736Z,18.40
2023-04-18T17:38:36.369Z,15.57
2023-04-18T17:41:04.610Z,18.08
2023-04-18T17:43:31.516Z,17.55
2023-04-18T17:46:00.198Z,19.75
2023-04-18T17:48:26.906Z,17.67
2023-04-18T17:50:53.499Z,23.48
2023-04-18T17:53:20.122Z,24.13
2023-04-18T17:55:48.865Z,18.33
2023-04-18T17:58:16.909Z,22.83
2023-04-18T18:00:43.654Z,21.58
2023-04-18T18:03:13.816Z,19.92
2023-04-18T18:05:41.285Z,22.13
2023-04-18T18:08:08.050Z,27.23
2023-04-18T18:10:34.806Z,18.05
2023-04-18T18:13:01.450Z,21.55
2023-04-18T18:15:28.484Z,22.25
2023-04-18T18:17:55.637Z,19.55
2023-04-18T18:20:23.010Z,27.50
2023-04-18T18:22:49.935Z,19.75
2023-04-18T18:25:16.620Z,23.58
2023-04-18T18:27:43.507Z,23.67
2023-04-18T18:30:10.946Z,26.08
2023-04-18T18:32:37.756Z,32.88
2023-04-18T18:35:06.014Z,19.80
2023-04-18T18:37:33.006Z,26.10
2023-04-18T18:39:59.911Z,35.15
2023-04-18T18:42:27.151Z,22.70
2023-04-18T18:44:53.707Z,43.08
2023-04-18T18:47:20.972Z,29.20
2023-04-18T18:49:48.784Z,26.80
2023-04-18T18:52:15.922Z,30.48
2023-04-18T18:54:42.506Z,20.60
2023-04-18T18:57:09.437Z,59.50
2023-04-18T18:59:36.243Z,53.22
2023-04-18T19:02:03.024Z,45.10
2023-04-18T19:04:30.858Z,30.30
2023-04-18T19:06:57.843Z,30.17
2023-04-18T19:09:24.451Z,30.58
2023-04-18T19:11:51.328Z,28.58
2023-04-18T19:14:17.918Z,80.03
2023-04-18T19:16:44.706Z,38.85
2023-04-18T19:19:11.951Z,113.15
2023-04-18T19:21:43.022Z,31.50
2023-04-18T19:24:14.772Z,25.30
2023-04-18T19:26:41.843Z,26.30
2023-04-18T19:29:10.315Z,29.73
2023-04-18T19:31:40.409Z,21.40
2023-04-18T19:34:13.578Z,26.98
2023-04-18T19:36:40.359Z,71.05
2023-04-18T19:39:17.221Z,41.15
2023-04-18T19:41:44.333Z,28.73
2023-04-18T19:44:10.880Z,29.15
2023-04-18T19:46:39.055Z,29.58
2023-04-18T19:49:07.906Z,27.48
2023-04-18T19:51:34.821Z,70.78
2023-04-18T19:54:01.447Z,33.25
2023-04-18T19:56:28.675Z,33.38
2023-04-18T19:58:57.870Z,27.65
2023-04-18T20:01:25.742Z,24.10
2023-04-18T20:06:20.933Z,25.80
2023-04-18T20:08:50.017Z,30.83
2023-04-18T20:11:16.809Z,24.25
2023-04-18T20:13:43.450Z,26.08
2023-04-18T20:16:11.489Z,26.70
2023-04-18T20:18:40.134Z,25.30
2023-04-18T20:21:09.980Z,29.73
2023-04-18T20:23:37.356Z,24.77
2023-04-18T20:26:04.417Z,26.92
2023-04-18T20:28:31.879Z,30.42
2023-04-18T20:30:58.532Z,28.77
2023-04-18T20:33:25.344Z,28.60
2023-04-18T20:35:53.754Z,31.08
2023-04-18T20:38:25.806Z,32.63
2023-04-18T20:40:53.318Z,33.35
2023-04-18T20:43:20.348Z,31.52
2023-04-18T20:45:58.672Z,32.70
2023-04-18T20:48:25.461Z,31.85
2023-04-18T20:50:52.104Z,33.22
2023-04-18T20:53:26.997Z,32.70
2023-04-18T20:55:54.797Z,31.02
2023-04-18T20:58:21.346Z,30.00
2023-04-18T21:00:49.088Z,29.00
2023-04-18T21:03:16.850Z,30.45
2023-04-18T21:05:44.793Z,30.17
2023-04-18T21:08:14.365Z,25.92
2023-04-18T21:10:41.255Z,25.17
2023-04-18T21:13:09.237Z,26.98
2023-04-18T21:15:36.253Z,21.17
2023-04-18T21:18:03.107Z,26.85
2023-04-18T21:20:29.873Z,35.20
2023-04-18T21:22:56.613Z,31.42
2023-04-18T21:25:23.368Z,30.40
2023-04-18T21:27:50.832Z,31.98
2023-04-18T21:30:17.866Z,29.33
2023-04-18T21:32:45.707Z,32.85
2023-04-18T21:35:12.713Z,30.92
2023-04-18T21:37:39.268Z,35.90
2023-04-18T21:40:09.470Z,31.67
2023-04-18T21:42:37.134Z,25.85
2023-04-18T21:45:04.293Z,27.98
2023-04-18T21:47:32.263Z,34.05
2023-04-18T21:49:59.640Z,28.77
2023-04-18T21:52:26.254Z,25.67
2023-04-18T21:54:53.029Z,29.95
2023-04-18T21:57:19.533Z,28.42
2023-04-18T21:59:48.556Z,30.75
2023-04-18T22:02:15.416Z,31.55
2023-04-18T22:04:42.782Z,32.40
2023-04-18T22:07:11.348Z,32.00
2023-04-18T22:09:38.103Z,30.48
2023-04-18T22:12:06.150Z,31.40
2023-04-18T22:14:33.250Z,30.58
2023-04-18T22:17:03.129Z,36.00
2023-04-18T22:19:31.299Z,37.38
2023-04-18T22:21:58.042Z,35.00
2023-04-18T22:24:25.915Z,29.02
2023-04-18T22:26:52.999Z,31.83
2023-04-18T22:29:19.755Z,40.25
2023-04-18T22:31:46.468Z,34.58
2023-04-18T22:34:13.211Z,36.25
2023-04-18T22:36:39.997Z,37.33
2023-04-18T22:39:07.309Z,38.67
2023-04-18T22:41:34.055Z,39.67
2023-04-18T22:44:00.668Z,33.40
2023-04-18T22:46:27.945Z,39.10
2023-04-18T22:48:57.410Z,36.58
2023-04-18T22:51:24.224Z,39.28
2023-04-18T22:53:50.789Z,41.15
2023-04-18T22:56:17.332Z,40.30
2023-04-18T22:58:44.012Z,37.90
2023-04-18T23:01:10.615Z,39.85
2023-04-18T23:03:37.592Z,39.90
2023-04-18T23:06:07.488Z,40.67
2023-04-18T23:08:34.122Z,39.67
2023-04-18T23:11:00.682Z,45.70
2023-04-18T23:13:27.281Z,40.75
2023-04-18T23:15:53.791Z,43.85
2023-04-18T23:18:20.499Z,41.70
2023-04-18T23:20:47.029Z,40.42
2023-04-18T23:23:13.567Z,42.55
2023-04-18T23:25:40.179Z,42.60
2023-04-18T23:28:07.608Z,47.53
2023-04-18T23:30:36.767Z,40.35
2023-04-18T23:33:03.508Z,44.65
2023-04-18T23:35:30.241Z,45.00
2023-04-18T23:37:57.269Z,43.90
2023-04-18T23:40:23.925Z,45.33
2023-04-18T23:42:50.772Z,44.97
2023-04-18T23:45:17.307Z,46.55
2023-04-18T23:47:43.984Z,45.78
2023-04-18T23:50:11.210Z,45.45
2023-04-18T23:52:38.525Z,46.40
2023-04-18T23:55:05.460Z,47.28
2023-04-18T23:57:32.120Z,54.90
2023-04-18T23:59:58.634Z,44.53
